Data for 07/12/2008

Time Sea-Level Adjusted Pressure Absolute Pressure Temperature Relative Humidity Dew Point   
(mb) (inHg) (mb) (inHg) (C) (F) (%) (C) (F)
00:05 1025 30.27 854 25.22 10.9 51.5 34 -4.2 24.5
00:10 1025 30.27 854 25.22 10.7 51.3 35 -4.1 24.7
00:15 1025 30.27 854 25.22 10.4 50.7 35 -4.3 24.3
00:20 1025 30.27 854 25.22 10.2 50.3 36 -4.1 24.6
00:25 1025 30.27 854 25.22 9.9 49.9 37 -4.1 24.7
00:30 1025 30.27 854 25.22 9.8 49.6 37 -4.1 24.7
00:35 1025 30.27 854 25.22 9.8 49.6 38 -4 24.8
00:40 1025 30.27 854 25.22 10 49.9 36 -4.5 23.9
00:45 1025 30.27 854 25.22 10.3 50.5 36 -4 24.9
00:50 1025 30.27 854 25.22 10.1 50.2 37 -3.9 24.9
00:55 1025 30.27 854 25.22 10.1 50.1 37 -3.8 25.1
01:00 1025 30.27 854 25.22 10.2 50.4 37 -3.8 25.2
01:05 1025 30.27 854 25.22 10.2 50.3 38 -3.5 25.7
01:10 1025 30.27 854 25.22 10 50 37 -3.9 25
01:15 1025 30.27 854 25.22 10.1 50.1 37 -4 24.9
01:20 1025 30.27 854 25.22 10.2 50.3 37 -4 24.9
01:25 1025 30.27 854 25.22 10 49.9 37 -4 24.8
01:30 1025 30.27 854 25.22 9.9 49.8 37 -4.2 24.4
01:35 1025 30.27 854 25.22 10 50 36 -4.4 24.2
01:40 1025 30.27 854 25.22 10.1 50.2 36 -4.2 24.4
01:45 1025 30.27 854 25.22 10.1 50.2 37 -4 24.8
01:50 1025 30.27 854 25.22 9.8 49.7 40 -3.3 26.1
01:55 1025 30.27 854 25.22 9.7 49.5 40 -3.3 26
02:00 1025 30.27 854 25.22 9.6 49.3 40 -3.3 26.1
02:05 1025 30.27 854 25.22 9.6 49.3 40 -3.2 26.3
02:10 1025 30.27 854 25.22 9.4 49 42 -2.8 26.9
02:15 1025 30.27 854 25.22 9.3 48.7 43 -2.7 27.1
02:20 1025 30.27 854 25.22 9.2 48.6 42 -2.8 26.9
02:25 1025 30.27 854 25.22 9 48.3 43 -3 26.6
02:30 1025 30.27 854 25.22 9 48.1 43 -3 26.6
02:35 1025 30.27 854 25.22 8.7 47.7 43 -3.1 26.5
02:40 1025 30.27 854 25.22 8.7 47.6 44 -3 26.6
02:45 1025 30.27 854 25.22 8.6 47.4 43 -3.1 26.4
02:50 1025 30.27 854 25.22 8.7 47.6 44 -3 26.6
02:55 1025 30.27 854 25.22 8.8 47.8 44 -2.8 27
03:00 1025 30.27 854 25.22 8.7 47.7 42 -3.4 26
03:05 1025 30.27 854 25.22 8.8 47.8 42 -3.6 25.6
03:10 1025 30.27 854 25.22 8.8 47.8 42 -3.5 25.6
03:15 1025 30.27 854 25.22 8.6 47.5 42 -3.5 25.7
03:20 1025 30.27 854 25.22 8.6 47.5 41 -3.8 25.1
03:25 1025 30.27 854 25.22 8.7 47.6 42 -3.6 25.5
03:30 1025 30.27 854 25.22 8.6 47.4 41 -4.1 24.7
03:35 1025 30.27 854 25.22 8.7 47.6 40 -4.2 24.4
03:40 1025 30.27 854 25.22 8.6 47.6 39 -4.4 24.1
03:45 1025 30.27 854 25.22 8.6 47.5 41 -4 24.8
03:50 1025 30.27 854 25.22 8.3 46.9 41 -4.2 24.5
03:55 1025 30.27 854 25.22 8.1 46.6 41 -4.3 24.2
04:00 1025 30.27 854 25.22 8 46.5 42 -4.2 24.4
04:05 1025 30.27 855 25.25 8 46.3 42 -4.3 24.3
04:10 1025 30.27 855 25.25 8.2 46.7 40 -4.6 23.8
04:15 1025 30.27 855 25.25 8.1 46.7 42 -4.1 24.6
04:20 1025 30.27 855 25.25 8 46.5 41 -4.5 23.9
04:25 1026 30.3 855 25.25 7.8 46.1 40 -4.9 23.1
04:30 1026 30.3 855 25.25 7.9 46.1 41 -4.6 23.7
04:35 1026 30.3 855 25.25 7.9 46.2 41 -4.6 23.7
04:40 1026 30.3 855 25.25 8 46.3 41 -4.6 23.7
04:45 1026 30.3 855 25.25 8.2 46.7 40 -4.6 23.7
04:50 1026 30.3 855 25.25 8 46.4 42 -4.2 24.4
04:55 1026 30.3 855 25.25 7.7 45.9 43 -4.2 24.5
05:00 1026 30.3 855 25.25 7.5 45.5 43 -4.1 24.6
05:05 1026 30.3 855 25.25 7.4 45.3 44 -4.1 24.7
05:10 1026 30.3 855 25.25 7.3 45.2 45 -3.9 24.9
05:15 1026 30.3 855 25.25 7.1 44.7 46 -3.6 25.4
05:20 1026 30.3 855 25.25 7 44.5 47 -3.6 25.5
05:25 1026 30.3 855 25.25 7 44.7 46 -3.7 25.3
05:30 1026 30.3 855 25.25 7.1 44.8 46 -3.7 25.4
05:35 1026 30.3 855 25.25 7.1 44.8 46 -3.7 25.3
05:40 1026 30.3 855 25.25 6.9 44.4 47 -3.5 25.7
05:45 1026 30.3 855 25.25 6.6 43.9 48 -3.5 25.7
05:50 1026 30.3 855 25.25 6.5 43.6 49 -3.6 25.5
05:55 1026 30.3 855 25.25 6.5 43.8 47 -3.9 25
06:00 1026 30.3 855 25.25 6.9 44.4 44 -4.4 24.2
06:05 1026 30.3 856 25.28 7.2 44.9 44 -4.2 24.5
06:10 1026 30.3 856 25.28 7.3 45.1 44 -4.1 24.6
06:15 1026 30.3 856 25.28 7.2 44.9 46 -3.7 25.4
06:20 1027 30.33 856 25.28 7.1 44.8 43 -4.4 24
06:25 1027 30.33 856 25.28 7.5 45.5 43 -4.3 24.2
06:30 1027 30.33 856 25.28 7.6 45.6 45 -3.7 25.3
06:35 1027 30.33 856 25.28 7.6 45.7 45 -3.6 25.6
06:40 1027 30.33 856 25.28 7.6 45.6 45 -3.5 25.8
06:45 1027 30.33 856 25.28 7.6 45.6 46 -3.4 25.8
06:50 1027 30.33 856 25.28 7.7 45.9 45 -3.5 25.7
06:55 1027 30.33 856 25.28 7.9 46.3 45 -3.2 26.3
07:00 1027 30.33 856 25.28 8.1 46.5 45 -3 26.5
07:05 1027 30.33 856 25.28 8.3 46.9 46 -2.7 27.2
07:10 1027 30.33 856 25.28 8.3 46.9 46 -2.7 27.2
07:15 1027 30.33 856 25.28 8.5 47.3 44 -2.9 26.8
07:20 1027 30.33 856 25.28 9.1 48.3 44 -2.5 27.5
07:25 1027 30.33 856 25.28 9.4 48.8 44 -2.2 28.1
07:30 1027 30.33 856 25.28 9.5 49.1 45 -1.9 28.7
07:35 1027 30.33 856 25.28 9.7 49.4 44 -2 28.3
07:40 1027 30.33 856 25.28 9.7 49.4 45 -1.8 28.8
07:45 1027 30.33 856 25.28 9.8 49.7 44 -1.7 29
07:50 1027 30.33 856 25.28 10.2 50.3 43 -1.9 28.6
07:55 1027 30.33 856 25.28 10.7 51.3 42 -1.6 29.1
08:00 1027 30.33 856 25.28 11 51.9 41 -1.6 29.1
08:05 1027 30.33 856 25.28 11.6 52.9 39 -1.7 29
08:10 1027 30.33 856 25.28 12.1 53.7 38 -1.8 28.8
08:15 1027 30.33 856 25.28 12.7 54.9 35 -2.3 27.9
08:20 1027 30.33 856 25.28 13.7 56.6 33 -2.3 27.9
08:25 1027 30.33 856 25.28 14.5 58.1 31 -2.4 27.8
08:30 1027 30.33 856 25.28 15.4 59.6 29 -2.7 27.2
08:35 1027 30.33 856 25.28 15.6 60 28 -2.8 26.9
08:40 1027 30.33 856 25.28 16.1 61 26 -3.3 26.1
08:45 1027 30.33 856 25.28 16.3 61.4 28 -2.2 28
08:50 1027 30.33 856 25.28 16.4 61.5 26 -3.1 26.3
08:55 1027 30.33 856 25.28 16 60.9 28 -2.6 27.4
09:00 1027 30.33 856 25.28 16.1 60.9 27 -3.1 26.5
09:05 1027 30.33 856 25.28 16.8 62.3 26 -2.5 27.6
09:10 1027 30.33 856 25.28 17.1 62.7 25 -3.1 26.3
09:15 1027 30.33 856 25.28 17.2 62.9 25 -2.9 26.7
09:20 1027 30.33 856 25.28 17.2 62.9 26 -2.4 27.7
09:25 1027 30.33 856 25.28 17.6 63.7 25 -2.4 27.7
09:30 1027 30.33 856 25.28 17.5 63.5 26 -2.1 28.3
09:35 1027 30.33 856 25.28 17.4 63.2 25 -2.8 26.9
09:40 1027 30.33 856 25.28 17.7 63.8 24 -2.8 26.9
09:45 1027 30.33 856 25.28 17.3 63.1 26 -2.2 28
09:50 1027 30.33 856 25.28 16.3 61.4 26 -3 26.6
09:55 1027 30.33 856 25.28 17.3 63.2 25 -2.6 27.3
10:00 1027 30.33 856 25.28 17.9 64.2 26 -1.9 28.6
10:05 1027 30.33 856 25.28 18.4 65.1 22 -3.5 25.6
10:10 1027 30.33 856 25.28 18.2 64.8 24 -2.4 27.7
10:15 1027 30.33 856 25.28 18 64.3 25 -2.2 28.1
10:20 1027 30.33 856 25.28 18.3 65 24 -2.4 27.7
10:25 1027 30.33 856 25.28 18.4 65.2 23 -3.1 26.3
10:30 1027 30.33 856 25.28 18.4 65 25 -1.9 28.5
10:35 1027 30.33 856 25.28 17.8 64.1 25 -2.3 27.9
10:40 1027 30.33 856 25.28 18.3 64.9 25 -2.1 28.2
10:45 1027 30.33 856 25.28 18.6 65.4 24 -2 28.4
10:50 1027 30.33 856 25.28 18.9 66 24 -2 28.5
10:55 1027 30.33 856 25.28 19.1 66.3 23 -2.6 27.3
11:00 1027 30.33 856 25.28 19.3 66.8 23 -1.9 28.5
11:05 1027 30.33 856 25.28 19.8 67.7 22 -2.6 27.4
11:10 1027 30.33 856 25.28 20.1 68.1 20 -3.1 26.4
11:15 1027 30.33 856 25.28 19.6 67.3 24 -1.2 29.9
11:20 1027 30.33 856 25.28 19.2 66.6 22 -2.7 27.1
11:25 1027 30.33 856 25.28 19.9 67.8 22 -2.3 27.8
11:30 1027 30.33 856 25.28 20.3 68.5 22 -1.8 28.8
11:35 1027 30.33 856 25.28 20.2 68.4 23 -1.3 29.7
11:40 1027 30.33 856 25.28 20 68 23 -1.5 29.2
11:45 1027 30.33 856 25.28 19.9 67.8 22 -2.3 27.9
11:50 1026 30.3 856 25.28 20.7 69.3 20 -2.8 27
11:55 1026 30.3 856 25.28 20.4 68.8 19 -3.7 25.3
12:00 1026 30.3 856 25.28 20.4 68.7 21 -2.4 27.7
12:05 1026 30.3 856 25.28 20.3 68.6 20 -3.5 25.6
12:10 1026 30.3 856 25.28 19.8 67.6 19 -4.1 24.6
12:15 1026 30.3 856 25.28 19.5 67 19 -4.3 24.2
12:20 1026 30.3 855 25.25 20.5 68.8 18 -4.4 24
12:25 1026 30.3 855 25.25 20.8 69.4 19 -3.8 25.1
12:30 1026 30.3 855 25.25 20.9 69.5 19 -3.5 25.8
12:35 1026 30.3 855 25.25 21.3 70.4 18 -3.4 25.8
12:40 1026 30.3 855 25.25 21.4 70.5 18 -3.8 25.1
12:45 1026 30.3 855 25.25 20.9 69.6 18 -4 24.9
12:50 1026 30.3 855 25.25 20.6 69.1 18 -4.4 24
12:55 1026 30.3 855 25.25 20 68 19 -4.2 24.4
13:00 1026 30.3 855 25.25 20.4 68.7 20 -3.1 26.5
13:05 1026 30.3 855 25.25 19.7 67.5 20 -3.7 25.3
13:10 1026 30.3 855 25.25 19.6 67.4 20 -3.9 25
13:15 1026 30.3 855 25.25 21.2 70.1 19 -3.5 25.7
13:20 1026 30.3 855 25.25 21.7 71.1 18 -3.2 26.2
13:25 1026 30.3 855 25.25 22 71.5 17 -4.1 24.7
13:30 1026 30.3 855 25.25 22.2 71.9 17 -3.9 25
13:35 1026 30.3 855 25.25 22.3 72.2 17 -3.9 25
13:40 1026 30.3 855 25.25 22.8 73 17 -3.3 26.1
13:45 1026 30.3 855 25.25 22.8 73 16 -4.2 24.4
13:50 1026 30.3 855 25.25 22.4 72.2 17 -4 24.7
13:55 1025 30.27 855 25.25 22.5 72.5 15 -5.2 22.6
14:00 1025 30.27 855 25.25 22.5 72.6 16 -4.7 23.6
14:05 1025 30.27 855 25.25 23.2 73.7 16 -4.1 24.6
14:10 1025 30.27 855 25.25 23.3 73.9 14 -5.4 22.3
14:15 1025 30.27 855 25.25 23.5 74.2 15 -4.3 24.2
14:20 1025 30.27 855 25.25 23.5 74.3 15 -4.8 23.4
14:25 1025 30.27 854 25.22 23.6 74.5 15 -4 24.8
14:30 1025 30.27 854 25.22 23.3 74 16 -4.1 24.6
14:35 1025 30.27 854 25.22 22.5 72.4 15 -5.1 22.9
14:40 1025 30.27 854 25.22 23.6 74.5 15 -4.4 24.1
14:45 1025 30.27 854 25.22 23.9 75.1 13 -6.4 20.5
14:50 1025 30.27 854 25.22 24.2 75.6 13 -5.7 21.8
14:55 1025 30.27 854 25.22 23.9 74.9 16 -3.7 25.4
15:00 1025 30.27 854 25.22 23.1 73.5 13 -6.5 20.3
15:05 1025 30.27 854 25.22 22.8 73 13 -6.9 19.6
15:10 1025 30.27 854 25.22 23.5 74.3 14 -5.3 22.5
15:15 1025 30.27 854 25.22 24.3 75.8 13 -5.4 22.3
15:20 1025 30.27 854 25.22 24.1 75.4 13 -5.7 21.7
15:25 1025 30.27 854 25.22 24.1 75.4 12 -6.4 20.4
15:30 1025 30.27 854 25.22 24.7 76.4 11 -7.5 18.5
15:35 1025 30.27 854 25.22 24.3 75.7 13 -5.9 21.4
15:40 1025 30.27 854 25.22 23.6 74.5 13 -5.9 21.4
15:45 1025 30.27 854 25.22 23.3 74 14 -5.9 21.4
15:50 1025 30.27 854 25.22 23.9 75 12 -7.4 18.7
15:55 1025 30.27 854 25.22 24.4 76 12 -7 19.4
16:00 1025 30.27 854 25.22 25 76.9 12 -6.3 20.7
16:05 1025 30.27 854 25.22 25 77 13 -5.5 22.1
16:10 1025 30.27 854 25.22 24.4 75.9 13 -5.9 21.3
16:15 1025 30.27 854 25.22 24.4 75.8 12 -6.5 20.3
16:20 1025 30.27 854 25.22 25 77 12 -5.6 21.9
16:25 1025 30.27 854 25.22 24 75.2 12 -6.6 20.1
16:30 1025 30.27 854 25.22 24.5 76 12 -6.5 20.2
16:35 1024 30.24 854 25.22 23.5 74.4 12 -7.1 19.3
16:40 1024 30.24 854 25.22 24.2 75.6 12 -6.4 20.5
16:45 1024 30.24 854 25.22 25.3 77.6 12 -6.3 20.7
16:50 1024 30.24 854 25.22 25.8 78.4 12 -5.5 22.2
16:55 1024 30.24 853 25.19 25.1 77.2 12 -6.5 20.3
17:00 1024 30.24 853 25.19 24.2 75.5 12 -6.9 19.6
17:05 1024 30.24 853 25.19 24 75.1 12 -7.4 18.6
17:10 1024 30.24 853 25.19 25 77.1 11 -7.1 19.2
17:15 1024 30.24 853 25.19 24.6 76.3 11 -8.2 17.3
17:20 1024 30.24 853 25.19 24.3 75.7 9 -10.1 13.8
17:25 1024 30.24 853 25.19 24.6 76.3 9 -10.8 12.6
17:30 1024 30.24 853 25.19 24.5 76.1 10 -8.7 16.4
17:35 1024 30.24 853 25.19 24.8 76.7 9 -9.7 14.5
17:40 1024 30.24 853 25.19 24.8 76.6 9 -9.4 15
17:45 1024 30.24 853 25.19 25.2 77.4 9 -10.4 13.2
17:50 1024 30.24 853 25.19 24.8 76.6 9 -10.4 13.3
17:55 1024 30.24 853 25.19 24.5 76 10 -9.4 15
18:00 1024 30.24 853 25.19 25 77 9 -9.7 14.6
18:05 1024 30.24 853 25.19 24 75.2 9 -10.4 13.3
18:10 1024 30.24 853 25.19 24 75.3 10 -9.3 15.2
18:15 1023 30.21 853 25.19 24.1 75.5 9 -9.9 14.2
18:20 1023 30.21 853 25.19 24.3 75.7 9 -10.1 13.9
18:25 1023 30.21 853 25.19 24.7 76.4 9 -10.5 13.1
18:30 1023 30.21 853 25.19 24.5 76 9 -10.3 13.4
18:35 1023 30.21 853 25.19 23.8 74.9 8 -12.5 9.6
18:40 1023 30.21 853 25.19 23.9 75.1 8 -13 8.7
18:45 1023 30.21 852 25.16 24.5 76.1 7 -12.7 9.2
18:50 1023 30.21 852 25.16 25.2 77.4 8 -11.7 11
18:55 1023 30.21 852 25.16 25.7 78.2 8 -11.5 11.2
19:00 1023 30.21 852 25.16 25.2 77.4 7 -12.4 9.6
19:05 1023 30.21 852 25.16 25.2 77.3 8 -11.9 10.6
19:10 1023 30.21 852 25.16 25.4 77.6 8 -11.7 10.9
19:15 1023 30.21 852 25.16 25.3 77.6 8 -11.9 10.6
19:20 1023 30.21 852 25.16 24.5 76.2 7 -12.9 8.8
19:25 1023 30.21 852 25.16 24.2 75.5 7 -13.8 7.1
19:30 1023 30.21 852 25.16 23.9 74.9 8 -13.1 8.5
19:35 1023 30.21 852 25.16 23.6 74.4 8 -12.1 10.3
19:40 1023 30.21 852 25.16 23.4 74.1 8 -13 8.5
19:45 1023 30.21 852 25.16 23.3 74 8 -12.4 9.7
19:50 1023 30.21 852 25.16 23.3 73.9 9 -11.9 10.6
19:55 1023 30.21 852 25.16 23.2 73.8 9 -10.7 12.7
20:00 1022 30.18 852 25.16 23.1 73.6 9 -11.3 11.6
20:05 1022 30.18 852 25.16 23 73.5 10 -10.7 12.8
20:10 1022 30.18 852 25.16 23 73.3 9 -11 12.2
20:15 1022 30.18 852 25.16 22.9 73.2 10 -10.1 13.9
20:20 1022 30.18 852 25.16 22.8 73 10 -10 14
20:25 1022 30.18 851 25.13 22.6 72.6 12 -8.6 16.5
20:30 1022 30.18 851 25.13 22.5 72.4 12 -8.3 17.1
20:35 1022 30.18 851 25.13 22.3 72.2 12 -8 17.5
20:40 1022 30.18 851 25.13 22.1 71.8 14 -6.8 19.7
20:45 1022 30.18 851 25.13 21.8 71.3 14 -6.4 20.5
20:50 1022 30.18 851 25.13 21.8 71.2 14 -6.9 19.6
20:55 1022 30.18 851 25.13 21.7 71 15 -5.5 22
21:00 1022 30.18 851 25.13 21.4 70.6 22 -1.2 29.9
21:05 1022 30.18 851 25.13 20.8 69.4 25 0.2 32.3
21:10 1022 30.18 851 25.13 20 68.1 28 1 33.8
21:15 1022 30.18 851 25.13 19.2 66.5 28 0.4 32.7
21:20 1022 30.18 851 25.13 18.5 65.2 31 1.3 34.4
21:25 1022 30.18 851 25.13 17.6 63.8 35 1.9 35.5
21:30 1022 30.18 851 25.13 17.2 62.9 31 0.2 32.4
21:35 1022 30.18 851 25.13 17.1 62.7 27 -2 28.4
21:40 1022 30.18 851 25.13 17.2 62.9 25 -2.7 27.2
21:45 1022 30.18 851 25.13 17.2 63 24 -3.3 26
21:50 1022 30.18 851 25.13 17.3 63.2 24 -3.3 26
21:55 1022 30.18 851 25.13 17 62.6 26 -2.5 27.4
22:00 1022 30.18 851 25.13 16.2 61.2 28 -2.2 28
22:05 1022 30.18 851 25.13 15.7 60.2 28 -2.9 26.7
22:10 1022 30.18 852 25.16 15.6 60 28 -2.9 26.7
22:15 1022 30.18 852 25.16 15.4 59.8 28 -3 26.6
22:20 1022 30.18 852 25.16 15.3 59.6 28 -3 26.5
22:25 1022 30.18 852 25.16 15.6 60 26 -3.9 24.9
22:30 1022 30.18 852 25.16 15.8 60.4 29 -2 28.4
22:35 1022 30.18 852 25.16 15.5 59.8 27 -3.2 26.2
22:40 1022 30.18 851 25.13 15.4 59.7 27 -3.7 25.4
22:45 1022 30.18 851 25.13 15.5 59.8 26 -3.7 25.4
22:50 1022 30.18 851 25.13 15.4 59.7 28 -2.9 26.8
22:55 1022 30.18 851 25.13 15.3 59.6 26 -3.8 25.2
23:00 1022 30.18 851 25.13 15.3 59.5 26 -4 24.9
23:05 1022 30.18 851 25.13 15.2 59.4 26 -4.3 24.3
23:10 1022 30.18 851 25.13 15.3 59.5 25 -4.4 24.1
23:15 1022 30.18 851 25.13 15.3 59.6 25 -4.5 23.9
23:20 1022 30.18 851 25.13 15.4 59.7 25 -4.5 23.9
23:25 1022 30.18 851 25.13 15.4 59.7 25 -4.4 24.1
23:30 1022 30.18 851 25.13 15.3 59.6 25 -4.4 24
23:35 1022 30.18 851 25.13 15 59.1 25 -4.7 23.5
23:40 1022 30.18 851 25.13 15.1 59.2 25 -4.8 23.3
23:45 1022 30.18 851 25.13 15.5 59.9 24 -4.9 23.2
23:50 1022 30.18 851 25.13 15.4 59.7 24 -5.1 22.8
23:55 1022 30.18 851 25.13 15.4 59.8 24 -5.2 22.7
24:00 1022 30.18 851 25.13 15.7 60.2 23 -5.2 22.7